Time;durP1;ratioP1;P1;durP2;ratioP2;P2;SDS_P1;SDS_P2;PMS_P1;PMS_P2;Temp;Humidity;BMP_temperature;BMP_pressure;BME280_temperature;BME280_humidity;BME280_pressure;Samples;Min_cycle;Max_cycle;Signal;HPM_P1;HPM_P2
2023/05/16 00:01:08;;;;;;;;;;;11.00;99.90;;;;;;5048729;28;19976;-85
2023/05/16 00:03:36;;;;;;;;;;;;;;;;;;5043143;28;19963;-86
2023/05/16 00:06:04;;;;;;;;;;;11.00;99.90;;;;;;5041358;28;20019;-86
2023/05/16 00:08:31;;;;;;;;;;;;;;;;;;5042978;28;19933;-86
2023/05/16 00:10:58;;;;;;;;;;;;;;;;;;5034464;28;19932;-86
2023/05/16 00:13:25;;;;;;;;;;;10.80;99.90;;;;;;5060818;28;19936;-86
2023/05/16 00:15:52;;;;;;;;;;;10.80;99.90;;;;;;5048174;28;19929;-86
2023/05/16 00:18:20;;;;;;;;;;;;;;;;;;5048124;28;19936;-86
2023/05/16 00:20:47;;;;;;;;;;;;;;;;;;5046308;28;19932;-86
2023/05/16 00:23:15;;;;;;;;;;;;;;;;;;5045281;28;20294;-86
2023/05/16 00:25:42;;;;;;;;;;;;;;;;;;5048512;28;20383;-84
2023/05/16 00:28:09;;;;;;;;;;;;;;;;;;5047456;28;20371;-84
2023/05/16 00:30:37;;;;;;;;;;;;;;;;;;5048643;28;19999;-83
2023/05/16 00:33:05;;;;;;;;;;;10.50;99.90;;;;;;5050410;28;19948;-85
2023/05/16 00:35:32;;;;;;;;;;;;;;;;;;5035346;28;19937;-85
2023/05/16 00:38:00;;;;;;;;;;;;;;;;;;5033957;28;19925;-87
2023/05/16 00:40:27;;;;;;;;;;;10.50;99.90;;;;;;5044641;28;19940;-85
2023/05/16 00:42:54;;;;;;;;;;;;;;;;;;5037545;28;19935;-84
2023/05/16 00:45:21;;;;;;;;;;;;;;;;;;5057991;28;19929;-86
2023/05/16 00:47:48;;;;;;;;;;;10.40;99.90;;;;;;5055518;28;20015;-86
2023/05/16 00:50:15;;;;;;;;;;;;;;;;;;5057517;28;19928;-85
2023/05/16 00:52:44;;;;;;;;;;;10.40;99.90;;;;;;5056006;28;19925;-86
2023/05/16 00:55:11;;;;;;;;;;;;;;;;;;5057092;28;19929;-85
2023/05/16 00:57:38;;;;;;;;;;;;;;;;;;5052164;28;19990;-84
2023/05/16 01:00:05;;;;;;;;;;;;;;;;;;5055991;28;19936;-83
2023/05/16 01:02:32;;;;;;;;;;;;;;;;;;5055865;28;20370;-84
2023/05/16 01:05:00;;;;;;;;;;;;;;;;;;5040132;28;19925;-85
2023/05/16 01:07:26;;;;;;;;;;;10.10;99.90;;;;;;5045728;28;20308;-85
2023/05/16 01:09:53;;;;;;;;;;;;;;;;;;5057638;28;20474;-84
2023/05/16 01:12:21;;;;;;;;;;;;;;;;;;5047629;28;19929;-84
2023/05/16 01:14:55;;;;;;;;;;;9.90;99.90;;;;;;5036153;28;19933;-85
2023/05/16 01:17:26;;;;;;;;;;;9.80;99.90;;;;;;5036639;28;19929;-85
2023/05/16 01:19:53;;;;;;;;;;;;;;;;;;5035896;28;19936;-85
2023/05/16 01:22:29;;;;;;;;;;;9.70;99.90;;;;;;5053369;28;19924;-84
2023/05/16 01:25:02;;;;;;;;;;;9.50;99.90;;;;;;5054958;28;19924;-84
2023/05/16 01:27:31;;;;;;;;;;;9.50;99.90;;;;;;5052379;28;19928;-85
2023/05/16 01:29:58;;;;;;;;;;;9.40;99.90;;;;;;5046927;28;19930;-86
2023/05/16 01:32:25;;;;;;;;;;;9.30;99.90;;;;;;5047992;28;19944;-86
2023/05/16 01:34:52;;;;;;;;;;;9.30;99.90;;;;;;5046946;28;19929;-85
2023/05/16 01:37:20;;;;;;;;;;;9.20;99.90;;;;;;5042994;28;19929;-85
2023/05/16 01:39:51;;;;;;;;;;;9.10;99.90;;;;;;5032803;28;19940;-86
2023/05/16 01:42:21;;;;;;;;;;;8.90;99.90;;;;;;5040150;28;19936;-84
2023/05/16 01:44:53;;;;;;;;;;;8.80;99.90;;;;;;5042166;28;19955;-86
2023/05/16 01:47:22;;;;;;;;;;;8.90;99.90;;;;;;5042793;28;19929;-86
2023/05/16 01:49:51;;;;;;;;;;;8.90;99.90;;;;;;5041651;28;19929;-86
2023/05/16 01:52:20;;;;;;;;;;;9.00;99.90;;;;;;5039888;28;20097;-84
2023/05/16 01:54:48;;;;;;;;;;;9.00;99.90;;;;;;5044712;28;19933;-84
2023/05/16 01:57:16;;;;;;;;;;;9.10;99.90;;;;;;5032923;28;19925;-84
2023/05/16 01:59:42;;;;;;;;;;;9.10;99.90;;;;;;5052911;28;19959;-84
2023/05/16 02:02:11;;;;;;;;;;;9.10;99.90;;;;;;5052902;28;19971;-84
2023/05/16 02:04:38;;;;;;;;;;;9.80;99.90;;;;;;5050857;28;19929;-84
2023/05/16 02:07:05;;;;;;;;;;;9.10;99.90;;;;;;5033694;28;19936;-85
2023/05/16 02:09:32;;;;;;;;;;;9.10;99.90;;;;;;5036353;28;19936;-83
2023/05/16 02:12:01;;;;;;;;;;;9.00;99.90;;;;;;5047588;28;19929;-84
2023/05/16 02:14:29;;;;;;;;;;;9.10;99.90;;;;;;5035562;28;19929;-83
2023/05/16 02:16:56;;;;;;;;;;;9.10;99.90;;;;;;5034538;28;19940;-83
2023/05/16 02:19:24;;;;;;;;;;;9.10;99.90;;;;;;5033953;28;19936;-83
2023/05/16 02:21:51;;;;;;;;;;;9.10;99.90;;;;;;5032624;28;20272;-84
2023/05/16 02:24:17;;;;;;;;;;;9.10;99.90;;;;;;5034793;28;19929;-83
2023/05/16 02:26:44;;;;;;;;;;;10.10;99.90;;;;;;5033492;28;19974;-83
2023/05/16 02:29:11;;;;;;;;;;;9.10;99.90;;;;;;5033535;28;19929;-83
2023/05/16 02:31:38;;;;;;;;;;;9.10;99.90;;;;;;5033265;28;19971;-83
2023/05/16 02:34:06;;;;;;;;;;;;;;;;;;5049312;28;20023;-85
2023/05/16 02:36:34;;;;;;;;;;;11.50;99.90;;;;;;5047526;28;19929;-83
2023/05/16 02:39:02;;;;;;;;;;;9.00;99.90;;;;;;5050005;28;19974;-83
2023/05/16 02:41:30;;;;;;;;;;;9.00;99.90;;;;;;5037152;28;19940;-84
2023/05/16 02:43:57;;;;;;;;;;;9.10;99.90;;;;;;5037974;28;19925;-85
2023/05/16 02:46:25;;;;;;;;;;;9.10;99.90;;;;;;5037652;28;19936;-83
2023/05/16 02:48:52;;;;;;;;;;;9.10;99.90;;;;;;5044359;28;20023;-86
2023/05/16 02:51:20;;;;;;;;;;;9.40;99.90;;;;;;5048625;28;19933;-83
2023/05/16 02:53:48;;;;;;;;;;;9.20;99.90;;;;;;5045414;28;19925;-83
2023/05/16 02:56:16;;;;;;;;;;;9.10;99.90;;;;;;5044931;28;19925;-83
2023/05/16 02:58:43;;;;;;;;;;;9.00;99.90;;;;;;5061235;28;19936;-83
2023/05/16 03:01:14;;;;;;;;;;;9.00;99.90;;;;;;5066437;28;19925;-86
2023/05/16 03:03:41;;;;;;;;;;;9.10;99.90;;;;;;5074404;28;19998;-86
2023/05/16 03:06:08;;;;;;;;;;;9.10;99.90;;;;;;5070138;28;19929;-83
2023/05/16 03:08:35;;;;;;;;;;;8.90;99.90;;;;;;5060442;28;19928;-83
2023/05/16 03:11:03;;;;;;;;;;;9.20;99.90;;;;;;5049952;28;19935;-83
2023/05/16 03:13:30;;;;;;;;;;;11.50;99.90;;;;;;5050808;28;19985;-87
2023/05/16 03:15:59;;;;;;;;;;;;;;;;;;5055963;28;19940;-87
2023/05/16 03:18:26;;;;;;;;;;;8.90;99.90;;;;;;5069202;28;19924;-84
2023/05/16 03:20:52;;;;;;;;;;;8.80;99.90;;;;;;5068392;28;19933;-86
2023/05/16 03:23:19;;;;;;;;;;;8.80;99.90;;;;;;5067508;28;20375;-84
2023/05/16 03:25:46;;;;;;;;;;;8.80;99.90;;;;;;5057876;28;20016;-85
2023/05/16 03:28:14;;;;;;;;;;;8.30;99.90;;;;;;5048285;28;20056;-83
2023/05/16 03:30:42;;;;;;;;;;;8.60;99.90;;;;;;5062914;28;19936;-86
2023/05/16 03:33:09;;;;;;;;;;;8.50;99.90;;;;;;5065991;28;19964;-85
2023/05/16 03:35:36;;;;;;;;;;;8.20;99.90;;;;;;5062230;28;20492;-86
2023/05/16 03:38:03;;;;;;;;;;;8.20;99.90;;;;;;5061986;28;19937;-84
2023/05/16 03:40:33;;;;;;;;;;;8.30;99.90;;;;;;5053034;28;19933;-89
2023/05/16 03:43:00;;;;;;;;;;;8.00;99.90;;;;;;5061724;28;19927;-86
2023/05/16 03:45:29;;;;;;;;;;;7.80;99.90;;;;;;5069718;28;19931;-89
2023/05/16 03:47:57;;;;;;;;;;;8.00;99.90;;;;;;5066872;28;19935;-88
2023/05/16 03:50:24;;;;;;;;;;;8.00;99.90;;;;;;5067400;28;19935;-87
2023/05/16 03:52:52;;;;;;;;;;;7.90;99.90;;;;;;5069757;28;19928;-86
2023/05/16 03:55:20;;;;;;;;;;;7.90;99.90;;;;;;5058999;28;19967;-90
2023/05/16 03:57:48;;;;;;;;;;;8.20;99.90;;;;;;5049225;28;19925;-87
2023/05/16 04:00:16;;;;;;;;;;;7.90;99.90;;;;;;5061245;28;19933;-88
2023/05/16 04:02:44;;;;;;;;;;;7.90;99.90;;;;;;5044479;28;19925;-87
2023/05/16 04:05:23;;;;;;;;;;;8.00;99.90;;;;;;5043193;28;19959;-89
2023/05/16 04:07:50;;;;;;;;;;;7.90;99.90;;;;;;5061932;28;19947;-88
2023/05/16 04:10:17;;;;;;;;;;;8.00;99.90;;;;;;5064307;28;20004;-86
2023/05/16 04:12:45;;;;;;;;;;;8.00;99.90;;;;;;5057341;28;19929;-86
2023/05/16 04:15:11;;;;;;;;;;;7.80;99.90;;;;;;5065467;28;19925;-90
2023/05/16 04:17:38;;;;;;;;;;;7.90;99.90;;;;;;5063170;28;19955;-90
2023/05/16 04:20:07;;;;;;;;;;;7.80;99.90;;;;;;5064629;28;20453;-88
2023/05/16 04:22:35;;;;;;;;;;;7.90;99.90;;;;;;5065609;28;19984;-85
2023/05/16 04:25:02;;;;;;;;;;;8.20;99.90;;;;;;5067548;28;19951;-87
2023/05/16 04:27:29;;;;;;;;;;;8.10;99.90;;;;;;5058050;28;19972;-87
2023/05/16 04:29:56;;;;;;;;;;;8.20;99.90;;;;;;5066263;28;19947;-87
2023/05/16 04:32:22;;;;;;;;;;;8.20;99.90;;;;;;5053254;28;20143;-87
2023/05/16 04:34:52;;;;;;;;;;;8.30;99.90;;;;;;5048318;28;19952;-87
2023/05/16 04:37:20;;;;;;;;;;;8.10;99.90;;;;;;5055848;28;19935;-87
2023/05/16 04:39:47;;;;;;;;;;;8.30;99.90;;;;;;5051617;28;20023;-86
2023/05/16 04:42:13;;;;;;;;;;;8.30;99.90;;;;;;5056354;28;19929;-86
2023/05/16 04:44:41;;;;;;;;;;;8.30;99.90;;;;;;5056582;28;19935;-87
2023/05/16 04:47:08;;;;;;;;;;;8.40;99.90;;;;;;5063409;28;19920;-86
2023/05/16 04:49:35;;;;;;;;;;;8.40;99.90;;;;;;5056151;28;20453;-86
2023/05/16 04:52:02;;;;;;;;;;;8.50;99.90;;;;;;5061555;28;19925;-85
2023/05/16 04:54:30;;;;;;;;;;;8.50;99.90;;;;;;5055418;28;19928;-86
2023/05/16 04:56:57;;;;;;;;;;;8.40;99.90;;;;;;5047327;28;19935;-85
2023/05/16 04:59:24;;;;;;;;;;;8.60;99.90;;;;;;5062216;28;19925;-83
2023/05/16 05:01:50;;;;;;;;;;;8.60;99.90;;;;;;5052581;28;19936;-85
2023/05/16 05:04:17;;;;;;;;;;;8.70;99.90;;;;;;5039428;28;19929;-85
2023/05/16 05:06:44;;;;;;;;;;;;;;;;;;5039377;28;19929;-83
2023/05/16 05:09:11;;;;;;;;;;;8.80;99.90;;;;;;5039823;28;19937;-85
2023/05/16 05:11:39;;;;;;;;;;;8.90;99.90;;;;;;5050122;28;19929;-84
2023/05/16 05:14:06;;;;;;;;;;;8.90;99.90;;;;;;5043728;28;19937;-85
2023/05/16 05:16:33;;;;;;;;;;;9.10;99.90;;;;;;5046333;28;19925;-85
2023/05/16 05:19:01;;;;;;;;;;;9.20;99.90;;;;;;5048574;28;19931;-87
2023/05/16 05:21:29;;;;;;;;;;;9.30;99.90;;;;;;5050692;28;20828;-84
2023/05/16 05:23:56;;;;;;;;;;;9.30;99.90;;;;;;5056822;28;19929;-87
2023/05/16 05:26:25;;;;;;;;;;;9.70;99.90;;;;;;5063314;28;19933;-87
2023/05/16 05:28:53;;;;;;;;;;;9.80;99.90;;;;;;5059576;28;19951;-86
2023/05/16 05:31:19;;;;;;;;;;;10.10;99.90;;;;;;5060548;28;19933;-88
2023/05/16 05:33:47;;;;;;;;;;;10.60;99.90;;;;;;5053045;28;20060;-85
2023/05/16 05:36:14;;;;;;;;;;;10.90;99.90;;;;;;5064381;28;19949;-87
2023/05/16 05:38:41;;;;;;;;;;;12.30;99.90;;;;;;5055055;28;19908;-85
2023/05/16 05:41:07;;;;;;;;;;;14.80;99.90;;;;;;5059365;28;19928;-86
2023/05/16 05:43:35;;;;;;;;;;;16.20;99.90;;;;;;5051724;28;19921;-87
2023/05/16 05:46:03;;;;;;;;;;;16.20;99.90;;;;;;5045177;28;19925;-86
2023/05/16 05:48:31;;;;;;;;;;;;;;;;;;5040455;28;19929;-86
2023/05/16 05:50:58;;;;;;;;;;;18.40;99.90;;;;;;5038575;28;19921;-85
2023/05/16 05:53:25;;;;;;;;;;;20.70;99.90;;;;;;5041249;28;19921;-85
2023/05/16 05:55:51;;;;;;;;;;;20.80;99.90;;;;;;5058303;28;19915;-86
2023/05/16 05:58:18;;;;;;;;;;;22.10;99.90;;;;;;5061698;28;19925;-87
2023/05/16 06:00:45;;;;;;;;;;;23.20;99.90;;;;;;5055966;28;19971;-87
2023/05/16 06:03:14;;;;;;;;;;;23.50;99.90;;;;;;5060728;28;19925;-87
2023/05/16 06:05:46;;;;;;;;;;;24.30;99.90;;;;;;5047470;28;19931;-88
2023/05/16 06:08:13;;;;;;;;;;;25.80;99.90;;;;;;5037014;28;20002;-88
2023/05/16 06:10:40;;;;;;;;;;;25.70;99.90;;;;;;5047872;28;19920;-86
2023/05/16 06:13:07;;;;;;;;;;;25.70;99.90;;;;;;5046602;28;19921;-87
2023/05/16 06:15:33;;;;;;;;;;;24.50;99.90;;;;;;5039522;28;19931;-87
2023/05/16 06:18:00;;;;;;;;;;;25.20;99.90;;;;;;5040899;28;19951;-87
2023/05/16 06:20:27;;;;;;;;;;;;;;;;;;5048461;28;19927;-88
2023/05/16 06:22:55;;;;;;;;;;;24.80;99.90;;;;;;5042309;28;19932;-88
2023/05/16 06:25:22;;;;;;;;;;;24.50;99.90;;;;;;5047409;28;19974;-88
2023/05/16 06:27:50;;;;;;;;;;;24.50;99.90;;;;;;5050861;28;19936;-90
2023/05/16 06:30:17;;;;;;;;;;;;;;;;;;5062694;28;19956;-90
2023/05/16 06:32:44;;;;;;;;;;;25.90;99.90;;;;;;5046015;28;19979;-89
2023/05/16 06:35:10;;;;;;;;;;;26.40;99.90;;;;;;5056370;28;19934;-91
2023/05/16 06:37:37;;;;;;;;;;;26.00;99.90;;;;;;5058640;28;20031;-88
2023/05/16 06:40:07;;;;;;;;;;;26.70;99.90;;;;;;5057555;28;19974;-90
2023/05/16 06:42:34;;;;;;;;;;;27.40;99.90;;;;;;5072631;28;19965;-86
2023/05/16 06:45:01;;;;;;;;;;;29.10;99.90;;;;;;5065886;28;19908;-89
2023/05/16 06:47:27;;;;;;;;;;;30.40;99.90;;;;;;5066238;28;19979;-87
2023/05/16 06:49:54;;;;;;;;;;;30.50;99.90;;;;;;5063591;28;19921;-90
2023/05/16 06:52:22;;;;;;;;;;;31.20;99.90;;;;;;5053259;28;19932;-88
2023/05/16 06:54:49;;;;;;;;;;;31.60;99.90;;;;;;5048007;28;19924;-88
2023/05/16 06:57:17;;;;;;;;;;;31.80;99.90;;;;;;5045319;28;19929;-87
2023/05/16 06:59:44;;;;;;;;;;;32.60;99.90;;;;;;5041486;28;20053;-91
2023/05/16 07:02:12;;;;;;;;;;;32.60;99.90;;;;;;5045395;28;19920;-89
2023/05/16 07:04:41;;;;;;;;;;;31.50;99.90;;;;;;5042650;28;19928;-88
2023/05/16 07:07:08;;;;;;;;;;;31.40;99.90;;;;;;5040449;28;19931;-88
2023/05/16 07:09:35;;;;;;;;;;;31.00;99.90;;;;;;5054354;28;19984;-88
2023/05/16 07:12:02;;;;;;;;;;;31.90;99.90;;;;;;5055943;28;19921;-88
2023/05/16 07:14:30;;;;;;;;;;;32.20;99.90;;;;;;5046836;28;20019;-88
2023/05/16 07:16:57;;;;;;;;;;;32.30;97.20;;;;;;5048912;28;19925;-87
2023/05/16 07:19:24;;;;;;;;;;;32.80;98.80;;;;;;5049021;28;19932;-89
2023/05/16 07:21:51;;;;;;;;;;;32.90;91.50;;;;;;5054027;28;19924;-89
2023/05/16 07:24:19;;;;;;;;;;;32.90;90.10;;;;;;5056490;28;19996;-90
2023/05/16 07:26:45;;;;;;;;;;;32.90;90.40;;;;;;5058208;28;19927;-87
2023/05/16 07:29:12;;;;;;;;;;;32.90;89.20;;;;;;5061769;28;19909;-90
2023/05/16 07:31:41;;;;;;;;;;;33.00;90.00;;;;;;5059060;28;19928;-89
2023/05/16 07:34:07;;;;;;;;;;;33.20;91.10;;;;;;5058328;28;20403;-88
2023/05/16 07:36:34;;;;;;;;;;;33.30;82.30;;;;;;5056012;28;20383;-90
2023/05/16 07:39:01;;;;;;;;;;;33.40;85.90;;;;;;5058076;28;19971;-90
2023/05/16 07:41:29;;;;;;;;;;;34.30;79.00;;;;;;5049519;28;19968;-90
2023/05/16 07:43:56;;;;;;;;;;;33.70;77.00;;;;;;5058920;28;19924;-89
2023/05/16 07:46:24;;;;;;;;;;;33.20;81.70;;;;;;5058961;28;19917;-91
2023/05/16 07:48:52;;;;;;;;;;;32.00;75.30;;;;;;5050131;28;20358;-91
2023/05/16 07:51:19;;;;;;;;;;;30.50;72.60;;;;;;5033012;28;19960;-91
2023/05/16 07:53:46;;;;;;;;;;;28.60;72.90;;;;;;5049752;28;20062;-90
2023/05/16 07:56:13;;;;;;;;;;;26.80;73.20;;;;;;5052386;28;19925;-90
2023/05/16 07:58:40;;;;;;;;;;;;;;;;;;5050959;28;19925;-90
2023/05/16 08:01:07;;;;;;;;;;;;;;;;;;5049827;28;19924;-90
2023/05/16 08:03:34;;;;;;;;;;;;;;;;;;5051833;28;19924;-90
2023/05/16 08:06:02;;;;;;;;;;;25.30;79.10;;;;;;5052348;28;19932;-89
2023/05/16 08:08:29;;;;;;;;;;;24.90;79.50;;;;;;5054300;28;19932;-91
2023/05/16 08:10:56;;;;;;;;;;;;;;;;;;5045989;28;19958;-90
2023/05/16 08:13:23;;;;;;;;;;;23.90;78.40;;;;;;5052888;28;19971;-91
2023/05/16 08:15:51;;;;;;;;;;;22.90;76.90;;;;;;5055415;28;19978;-91
2023/05/16 08:18:17;;;;;;;;;;;22.90;81.80;;;;;;5051297;28;20011;-89
2023/05/16 08:20:44;;;;;;;;;;;;;;;;;;5052878;28;19963;-88
2023/05/16 08:23:12;;;;;;;;;;;24.70;83.20;;;;;;5052803;28;19921;-90
2023/05/16 08:25:39;;;;;;;;;;;24.70;83.90;;;;;;5050856;28;19921;-87
2023/05/16 08:28:06;;;;;;;;;;;24.50;82.50;;;;;;5051039;28;19932;-88
2023/05/16 08:30:33;;;;;;;;;;;24.70;82.90;;;;;;5050716;28;19921;-88
2023/05/16 08:33:03;;;;;;;;;;;25.40;87.30;;;;;;5048375;28;20002;-87
2023/05/16 08:35:30;;;;;;;;;;;25.40;85.00;;;;;;5031257;28;19983;-86
2023/05/16 08:37:57;;;;;;;;;;;25.10;79.10;;;;;;5029973;28;19929;-87
2023/05/16 08:40:26;;;;;;;;;;;23.50;76.30;;;;;;5043934;28;19928;-87
2023/05/16 08:42:53;;;;;;;;;;;;;;;;;;5036706;28;19932;-87
2023/05/16 08:45:20;;;;;;;;;;;;;;;;;;5031969;28;20310;-88
2023/05/16 08:47:50;;;;;;;;;;;22.60;84.60;;;;;;5033317;28;19921;-89
2023/05/16 08:50:17;;;;;;;;;;;24.20;86.00;;;;;;5043980;28;20290;-86
2023/05/16 08:52:44;;;;;;;;;;;24.10;85.60;;;;;;5034418;28;19925;-87
2023/05/16 08:55:11;;;;;;;;;;;26.40;90.20;;;;;;5035011;28;19932;-87
2023/05/16 08:57:40;;;;;;;;;;;26.90;84.70;;;;;;5036216;28;19951;-86
2023/05/16 09:00:10;;;;;;;;;;;27.10;83.80;;;;;;5037054;28;20395;-86
2023/05/16 09:02:37;;;;;;;;;;;26.50;80.20;;;;;;5055446;28;19974;-86
2023/05/16 09:05:05;;;;;;;;;;;25.70;76.10;;;;;;5058859;28;19961;-89
2023/05/16 09:07:32;;;;;;;;;;;;;;;;;;5059226;28;19924;-87
2023/05/16 09:09:58;;;;;;;;;;;27.80;79.20;;;;;;5054946;28;19928;-87
2023/05/16 09:12:25;;;;;;;;;;;25.80;76.40;;;;;;5049315;28;19944;-87
2023/05/16 09:14:54;;;;;;;;;;;26.60;82.10;;;;;;5056061;28;20016;-87
2023/05/16 09:17:21;;;;;;;;;;;25.80;76.20;;;;;;5059307;28;19947;-86
2023/05/16 09:19:51;;;;;;;;;;;25.60;76.30;;;;;;5058811;28;20601;-86
2023/05/16 09:22:18;;;;;;;;;;;25.80;78.30;;;;;;5056641;28;19925;-87
2023/05/16 09:24:45;;;;;;;;;;;;;;;;;;5058471;28;19925;-87
2023/05/16 09:27:13;;;;;;;;;;;26.40;75.00;;;;;;5055693;28;19921;-87
2023/05/16 09:29:40;;;;;;;;;;;26.00;73.20;;;;;;5056876;28;19925;-88
2023/05/16 09:32:13;;;;;;;;;;;25.90;76.00;;;;;;5055075;28;19960;-88
2023/05/16 09:34:40;;;;;;;;;;;25.90;77.40;;;;;;5053430;28;19959;-88
2023/05/16 09:37:07;;;;;;;;;;;26.00;75.50;;;;;;5036654;28;19931;-87
2023/05/16 09:39:33;;;;;;;;;;;26.00;72.70;;;;;;5044418;28;19924;-88
2023/05/16 09:42:00;;;;;;;;;;;25.50;71.60;;;;;;5048911;28;19920;-88
2023/05/16 09:44:27;;;;;;;;;;;;;;;;;;5060793;28;19939;-87
2023/05/16 09:46:54;;;;;;;;;;;23.50;71.20;;;;;;5067309;28;19924;-88
2023/05/16 09:49:23;;;;;;;;;;;22.60;73.00;;;;;;5063976;28;20000;-88
2023/05/16 09:51:51;;;;;;;;;;;22.10;73.90;;;;;;5061266;28;19963;-87
2023/05/16 09:54:18;;;;;;;;;;;;;;;;;;5061850;28;19944;-87
2023/05/16 09:56:45;;;;;;;;;;;;;;;;;;5061045;28;19925;-88
2023/05/16 09:59:12;;;;;;;;;;;;;;;;;;5065324;28;19947;-89
2023/05/16 10:01:39;;;;;;;;;;;;;;;;;;5066454;28;19931;-87
2023/05/16 10:04:09;;;;;;;;;;;;;;;;;;5065254;28;19925;-90
2023/05/16 10:06:37;;;;;;;;;;;20.10;79.40;;;;;;5054974;28;19987;-88
2023/05/16 10:09:04;;;;;;;;;;;20.00;78.80;;;;;;5048832;28;19963;-89
2023/05/16 10:11:31;;;;;;;;;;;;;;;;;;5064600;28;20004;-88
2023/05/16 10:13:58;;;;;;;;;;;;;;;;;;5065540;28;20519;-89
2023/05/16 10:16:26;;;;;;;;;;;19.90;82.70;;;;;;5060638;28;19921;-88
2023/05/16 10:18:53;;;;;;;;;;;20.50;84.40;;;;;;5055719;28;19967;-88
2023/05/16 10:21:21;;;;;;;;;;;20.90;83.70;;;;;;5042471;28;19932;-87
2023/05/16 10:23:51;;;;;;;;;;;20.80;81.50;;;;;;5039934;28;19971;-87
2023/05/16 10:26:18;;;;;;;;;;;20.70;82.10;;;;;;5057351;28;19925;-88
2023/05/16 10:28:45;;;;;;;;;;;20.70;82.10;;;;;;5057639;28;19960;-87
2023/05/16 10:31:14;;;;;;;;;;;20.60;82.60;;;;;;5058967;28;19921;-87
2023/05/16 10:33:40;;;;;;;;;;;20.70;81.70;;;;;;5066585;28;19909;-87
2023/05/16 10:36:08;;;;;;;;;;;20.80;82.30;;;;;;5073011;28;19973;-86
2023/05/16 10:38:35;;;;;;;;;;;;;;;;;;5073727;28;19908;-86
2023/05/16 10:41:02;;;;;;;;;;;;;;;;;;5060046;28;19909;-85
2023/05/16 10:43:29;;;;;;;;;;;;;;;;;;5068719;28;19908;-87
2023/05/16 10:45:56;;;;;;;;;;;;;;;;;;5073966;28;19924;-86
2023/05/16 10:48:31;;;;;;;;;;;19.30;82.00;;;;;;5059996;28;19920;-88
2023/05/16 10:50:58;;;;;;;;;;;19.10;81.60;;;;;;5059345;28;19928;-87
2023/05/16 10:53:30;;;;;;;;;;;19.00;81.50;;;;;;5058321;28;19939;-88
2023/05/16 10:56:10;;;;;;;;;;;18.90;83.10;;;;;;5055168;28;19928;-87
2023/05/16 10:58:41;;;;;;;;;;;18.80;84.20;;;;;;5054930;28;20611;-87
2023/05/16 11:01:21;;;;;;;;;;;18.90;83.80;;;;;;5048693;28;19948;-87
2023/05/16 11:04:15;;;;;;;;;;;18.80;83.60;;;;;;5034278;28;20024;-88
2023/05/16 11:06:49;;;;;;;;;;;18.70;82.60;;;;;;5017616;28;19928;-86
2023/05/16 11:09:24;;;;;;;;;;;18.60;82.40;;;;;;5058457;28;19975;-87
2023/05/16 11:11:59;;;;;;;;;;;18.50;83.40;;;;;;5050130;28;20142;-86
2023/05/16 11:14:27;;;;;;;;;;;18.60;84.10;;;;;;5055667;28;19924;-87
2023/05/16 11:16:56;;;;;;;;;;;;;;;;;;5039797;28;22072;-87
2023/05/16 11:19:31;;;;;;;;;;;18.70;83.10;;;;;;5033451;28;19964;-87
2023/05/16 11:22:15;;;;;;;;;;;18.70;82.30;;;;;;5054788;28;19929;-86
2023/05/16 11:24:49;;;;;;;;;;;18.80;83.70;;;;;;5056725;28;19947;-87
2023/05/16 11:27:20;;;;;;;;;;;19.20;84.20;;;;;;5050973;28;19924;-87
2023/05/16 11:29:47;;;;;;;;;;;19.60;84.40;;;;;;5057887;28;19928;-87
2023/05/16 11:32:14;;;;;;;;;;;20.00;83.70;;;;;;5045189;28;19928;-88
2023/05/16 11:34:42;;;;;;;;;;;20.10;82.80;;;;;;5040270;28;19967;-88
2023/05/16 11:37:09;;;;;;;;;;;;;;;;;;5041872;28;20027;-88
2023/05/16 11:39:36;;;;;;;;;;;;;;;;;;5049362;28;19936;-89
2023/05/16 11:42:04;;;;;;;;;;;;;;;;;;5061268;28;19925;-88
2023/05/16 11:44:32;;;;;;;;;;;17.90;84.10;;;;;;5059710;28;19999;-88
2023/05/16 11:47:00;;;;;;;;;;;;;;;;;;5048312;28;19928;-83
2023/05/16 11:49:27;;;;;;;;;;;17.00;88.40;;;;;;5062658;28;19943;-84
2023/05/16 11:51:57;;;;;;;;;;;;;;;;;;5061106;28;19947;-87
2023/05/16 11:54:24;;;;;;;;;;;16.60;90.80;;;;;;5060922;28;20006;-84
2023/05/16 11:56:51;;;;;;;;;;;16.60;91.60;;;;;;5061430;28;19924;-83
2023/05/16 11:59:18;;;;;;;;;;;;;;;;;;5058707;28;19932;-87
2023/05/16 12:01:48;;;;;;;;;;;17.20;93.20;;;;;;5060513;28;20023;-85
2023/05/16 12:04:19;;;;;;;;;;;17.40;93.30;;;;;;5052169;28;20307;-86
2023/05/16 12:07:00;;;;;;;;;;;17.70;93.10;;;;;;5038643;28;19992;-84
2023/05/16 12:09:28;;;;;;;;;;;17.90;92.00;;;;;;5036746;28;20338;-84
2023/05/16 12:11:56;;;;;;;;;;;;;;;;;;5044325;28;19960;-86
2023/05/16 12:14:24;;;;;;;;;;;18.10;91.90;;;;;;5043731;28;19925;-86
2023/05/16 12:16:52;;;;;;;;;;;;;;;;;;5044836;28;19931;-84
2023/05/16 12:19:22;;;;;;;;;;;18.30;91.30;;;;;;5046334;28;19948;-84
2023/05/16 12:21:53;;;;;;;;;;;;;;;;;;5043501;28;20049;-85
2023/05/16 12:24:20;;;;;;;;;;;;;;;;;;5042697;28;19947;-83
2023/05/16 12:26:48;;;;;;;;;;;;;;;;;;5040639;28;19925;-87
2023/05/16 12:29:16;;;;;;;;;;;;;;;;;;5024994;28;19936;-87
2023/05/16 12:31:46;;;;;;;;;;;19.30;90.10;;;;;;5024979;28;19925;-82
2023/05/16 12:34:16;;;;;;;;;;;19.60;86.70;;;;;;5021416;28;19952;-85
2023/05/16 12:36:44;;;;;;;;;;;;;;;;;;5040307;28;19948;-86
2023/05/16 12:39:12;;;;;;;;;;;;;;;;;;5030146;28;19929;-86
2023/05/16 12:41:42;;;;;;;;;;;19.50;83.50;;;;;;5054495;28;19966;-86
2023/05/16 12:44:09;;;;;;;;;;;;;;;;;;5037483;28;19913;-85
2023/05/16 12:46:36;;;;;;;;;;;;;;;;;;5053298;28;19925;-86
2023/05/16 12:49:04;;;;;;;;;;;19.80;81.40;;;;;;5035784;28;19953;-86
2023/05/16 12:51:31;;;;;;;;;;;;;;;;;;5038837;28;19984;-85
2023/05/16 12:53:58;;;;;;;;;;;;;;;;;;5048259;28;19929;-86
2023/05/16 12:56:25;;;;;;;;;;;;;;;;;;5027946;28;19930;-86
2023/05/16 12:58:52;;;;;;;;;;;;;;;;;;5018425;28;19929;-86
2023/05/16 13:01:19;;;;;;;;;;;;;;;;;;5018564;28;19983;-86
2023/05/16 13:03:47;;;;;;;;;;;20.20;79.50;;;;;;5026899;28;20153;-86
2023/05/16 13:06:15;;;;;;;;;;;;;;;;;;5040931;28;19929;-86
2023/05/16 13:08:42;;;;;;;;;;;20.40;76.30;;;;;;5040873;28;20265;-87
2023/05/16 13:11:09;;;;;;;;;;;20.30;75.50;;;;;;5042855;28;19935;-86
2023/05/16 13:13:36;;;;;;;;;;;;;;;;;;5041321;28;19925;-84
2023/05/16 13:16:03;;;;;;;;;;;20.40;77.70;;;;;;5044544;28;19935;-85
2023/05/16 13:18:30;;;;;;;;;;;;;;;;;;5029068;28;19983;-83
2023/05/16 13:20:58;;;;;;;;;;;21.10;76.80;;;;;;5039235;28;19929;-84
2023/05/16 13:23:25;;;;;;;;;;;21.30;76.90;;;;;;5041791;28;19929;-85
2023/05/16 13:25:52;;;;;;;;;;;21.50;78.20;;;;;;5026158;28;19925;-86
2023/05/16 13:28:19;;;;;;;;;;;21.70;76.60;;;;;;5051080;28;20117;-84
2023/05/16 13:30:46;;;;;;;;;;;22.00;75.80;;;;;;5045357;28;19932;-88
2023/05/16 13:33:13;;;;;;;;;;;;;;;;;;5060419;28;19928;-88
2023/05/16 13:35:40;;;;;;;;;;;22.10;75.90;;;;;;5061905;28;19924;-89
2023/05/16 13:38:07;;;;;;;;;;;;;;;;;;5045465;28;20512;-89
2023/05/16 13:40:35;;;;;;;;;;;;;;;;;;5039138;28;20004;-88
2023/05/16 13:43:04;;;;;;;;;;;20.80;74.40;;;;;;5038491;28;19999;-88
2023/05/16 13:45:31;;;;;;;;;;;;;;;;;;5051214;28;19933;-89
2023/05/16 13:47:58;;;;;;;;;;;19.60;75.40;;;;;;5058016;28;19928;-89
2023/05/16 13:50:25;;;;;;;;;;;;;;;;;;5049877;28;19925;-88
2023/05/16 13:52:52;;;;;;;;;;;;;;;;;;5060128;28;19925;-88
2023/05/16 13:55:19;;;;;;;;;;;;;;;;;;5062928;28;19925;-89
2023/05/16 13:57:46;;;;;;;;;;;18.80;77.60;;;;;;5058589;28;19960;-88
2023/05/16 14:00:13;;;;;;;;;;;;;;;;;;5057553;28;19997;-89
2023/05/16 14:02:41;;;;;;;;;;;;;;;;;;5059794;28;19975;-88
2023/05/16 14:05:09;;;;;;;;;;;19.20;78.70;;;;;;5060357;28;19978;-85
2023/05/16 14:07:36;;;;;;;;;;;;;;;;;;5058091;28;19925;-86
2023/05/16 14:10:05;;;;;;;;;;;;;;;;;;5046189;28;19995;-85
2023/05/16 14:12:32;;;;;;;;;;;;;;;;;;5061692;28;19913;-83
2023/05/16 14:14:59;;;;;;;;;;;;;;;;;;5073450;28;20100;-82
2023/05/16 14:17:26;;;;;;;;;;;20.30;76.50;;;;;;5069662;28;19949;-80
2023/05/16 14:20:08;;;;;;;;;;;19.80;76.40;;;;;;5060771;28;19971;-86
2023/05/16 14:22:36;;;;;;;;;;;;;;;;;;5055171;28;19967;-81
2023/05/16 14:25:03;;;;;;;;;;;;;;;;;;5076189;28;19912;-82
2023/05/16 14:27:31;;;;;;;;;;;18.70;76.90;;;;;;5077502;28;19939;-82
2023/05/16 14:29:58;;;;;;;;;;;;;;;;;;5076619;28;19913;-82
2023/05/16 14:32:25;;;;;;;;;;;;;;;;;;5076797;28;19942;-82
2023/05/16 14:34:53;;;;;;;;;;;;;;;;;;5077689;28;19987;-79
2023/05/16 14:37:20;;;;;;;;;;;;;;;;;;5077238;28;19986;-82
2023/05/16 14:39:49;;;;;;;;;;;;;;;;;;5070243;28;20421;-81
2023/05/16 14:42:16;;;;;;;;;;;20.80;76.60;;;;;;5077701;28;19925;-83
2023/05/16 14:44:43;;;;;;;;;;;;;;;;;;5078481;28;19944;-83
2023/05/16 14:47:11;;;;;;;;;;;20.10;76.60;;;;;;5070772;28;19909;-85
2023/05/16 14:49:39;;;;;;;;;;;;;;;;;;5064330;28;19948;-84
2023/05/16 14:52:07;;;;;;;;;;;19.60;77.40;;;;;;5066815;28;19925;-85
2023/05/16 14:54:37;;;;;;;;;;;;;;;;;;5061496;28;20015;-85
2023/05/16 14:57:04;;;;;;;;;;;;;;;;;;5047506;28;19952;-83
2023/05/16 14:59:31;;;;;;;;;;;19.10;77.00;;;;;;5039017;28;19940;-84